Time;durP1;ratioP1;P1;durP2;ratioP2;P2;SDS_P1;SDS_P2;PMS_P1;PMS_P2;Temp;Humidity;BMP_temperature;BMP_pressure;BME280_temperature;BME280_humidity;BME280_pressure;Samples;Min_cycle;Max_cycle;Signal;HPM_P1;HPM_P2
2023/03/13 00:03:51;;;;;;;14.23;7.00;;;10.90;99.90;;;;;;2614500;54;20123;-71
2023/03/13 00:09:39;;;;;;;19.70;7.97;;;10.90;99.90;;;;;;2613721;54;21056;-70
2023/03/13 00:15:27;;;;;;;11.97;6.77;;;11.00;99.90;;;;;;2611021;54;20123;-70
2023/03/13 00:21:16;;;;;;;14.40;6.30;;;11.00;99.90;;;;;;2613694;54;20134;-69
2023/03/13 00:27:04;;;;;;;14.70;6.80;;;10.90;99.90;;;;;;2612569;54;20399;-70
2023/03/13 00:32:51;;;;;;;15.10;6.63;;;10.80;99.90;;;;;;2611188;54;20475;-70
2023/03/13 00:38:40;;;;;;;25.20;6.60;;;10.70;99.90;;;;;;2612636;54;20726;-70
2023/03/13 00:44:27;;;;;;;13.80;6.47;;;10.60;99.90;;;;;;2613800;54;20367;-70
2023/03/13 00:50:15;;;;;;;22.43;7.40;;;10.60;99.90;;;;;;2611882;54;20130;-71
2023/03/13 00:56:06;;;;;;;12.70;4.77;;;10.60;99.90;;;;;;2611038;54;20268;-70
2023/03/13 01:01:54;;;;;;;18.73;4.80;;;10.60;99.90;;;;;;2610994;54;20387;-70
2023/03/13 01:11:57;;;;;;;11.30;4.07;;;10.30;99.90;;;;;;2614516;54;20414;-70
2023/03/13 01:17:45;;;;;;;20.20;5.03;;;10.10;99.90;;;;;;2614383;54;20398;-75
2023/03/13 01:23:33;;;;;;;22.10;6.40;;;10.10;99.90;;;;;;2614160;54;20395;-75
2023/03/13 01:29:21;;;;;;;15.70;4.97;;;10.10;99.90;;;;;;2612214;54;20210;-75
2023/03/13 01:35:09;;;;;;;14.80;4.93;;;9.90;99.90;;;;;;2611164;54;20143;-75
2023/03/13 01:40:57;;;;;;;11.47;4.77;;;9.60;99.90;;;;;;2613286;54;20300;-75
2023/03/13 01:46:44;;;;;;;23.17;6.77;;;9.60;99.90;;;;;;2612954;39;20333;-74
2023/03/13 01:52:32;;;;;;;15.73;5.83;;;9.50;99.90;;;;;;2613376;54;20159;-74
2023/03/13 01:58:20;;;;;;;18.13;4.53;;;9.50;99.90;;;;;;2611522;54;20170;-73
2023/03/13 02:04:07;;;;;;;12.93;5.00;;;9.50;99.90;;;;;;2612270;54;20368;-74
2023/03/13 02:07:26;;;;;;;13.67;4.50;;;9.40;99.90;;;;;;2613350;54;20420;-75
2023/03/13 02:09:55;;;;;;;13.53;3.43;;;9.50;99.90;;;;;;2610615;54;20151;-74
2023/03/13 02:15:42;;;;;;;20.83;5.80;;;9.40;99.90;;;;;;2611102;54;20447;-74
2023/03/13 02:21:42;;;;;;;12.60;4.57;;;9.40;99.90;;;;;;2612426;54;20408;-74
2023/03/13 02:27:30;;;;;;;18.83;6.00;;;9.40;99.90;;;;;;2612654;54;20452;-73
2023/03/13 02:33:20;;;;;;;22.47;4.70;;;9.50;99.90;;;;;;2611103;54;20865;-74
2023/03/13 02:39:08;;;;;;;13.40;4.80;;;9.60;99.90;;;;;;2611761;54;20379;-74
2023/03/13 02:44:55;;;;;;;13.40;3.43;;;9.60;99.90;;;;;;2612414;54;20355;-74
2023/03/13 02:50:43;;;;;;;14.17;4.10;;;9.70;99.90;;;;;;2612080;54;20131;-73
2023/03/13 02:56:35;;;;;;;17.97;4.50;;;9.80;99.90;;;;;;2613324;39;20498;-74
2023/03/13 03:02:22;;;;;;;13.90;5.10;;;9.90;99.90;;;;;;2613280;54;20429;-75
2023/03/13 03:12:00;;;;;;;15.10;4.27;;;9.90;99.90;;;;;;2613886;47;20414;-72
2023/03/13 03:17:48;;;;;;;18.93;4.80;;;9.90;99.90;;;;;;2614073;54;20479;-73
2023/03/13 03:23:36;;;;;;;9.80;4.27;;;10.00;99.90;;;;;;2612029;54;20117;-73
2023/03/13 03:29:24;;;;;;;9.17;3.73;;;10.00;99.90;;;;;;2611482;54;20431;-73
2023/03/13 03:35:12;;;;;;;9.83;3.10;;;10.00;99.90;;;;;;2612696;54;20158;-72
2023/03/13 03:41:00;;;;;;;7.83;2.90;;;10.10;99.90;;;;;;2610866;54;20156;-73
2023/03/13 03:46:48;;;;;;;7.57;3.63;;;10.20;99.90;;;;;;2612798;39;21160;-73
2023/03/13 03:52:36;;;;;;;11.10;3.00;;;10.40;99.90;;;;;;2612726;54;20195;-72
2023/03/13 03:58:24;;;;;;;9.07;3.30;;;10.40;99.90;;;;;;2611164;54;20403;-73
2023/03/13 04:04:11;;;;;;;3.87;2.53;;;10.40;99.90;;;;;;2611214;54;20139;-73
2023/03/13 04:07:27;;;;;;;11.20;2.80;;;10.40;99.90;;;;;;2612341;54;20427;-72
2023/03/13 04:09:53;;;;;;;4.87;2.80;;;10.40;99.90;;;;;;2611122;47;20167;-72
2023/03/13 04:15:41;;;;;;;6.13;2.27;;;10.40;99.90;;;;;;2610864;54;20130;-73
2023/03/13 04:21:29;;;;;;;5.30;2.53;;;10.40;99.90;;;;;;2612637;54;20913;-72
2023/03/13 04:27:17;;;;;;;5.07;1.90;;;10.40;99.90;;;;;;2611051;54;20649;-74
2023/03/13 04:33:04;;;;;;;7.33;3.30;;;10.40;99.90;;;;;;2612441;54;20130;-73
2023/03/13 04:38:52;;;;;;;8.50;3.03;;;10.60;99.90;;;;;;2612615;54;20142;-73
2023/03/13 04:44:39;;;;;;;4.53;2.30;;;10.50;99.90;;;;;;2613091;54;20125;-73
2023/03/13 04:50:27;;;;;;;5.63;2.73;;;10.60;99.90;;;;;;2611743;54;20174;-72
2023/03/13 04:56:24;;;;;;;5.67;2.07;;;10.70;99.90;;;;;;2612703;54;20182;-73
2023/03/13 05:02:12;;;;;;;3.17;2.13;;;10.80;99.90;;;;;;2613354;54;20485;-73
2023/03/13 05:12:00;;;;;;;2.77;1.87;;;10.90;99.90;;;;;;2613426;54;20386;-73
2023/03/13 05:17:47;;;;;;;2.83;1.77;;;11.00;99.90;;;;;;2614035;54;20475;-73
2023/03/13 05:23:34;;;;;;;3.30;1.83;;;11.10;99.90;;;;;;2613597;54;20154;-73
2023/03/13 05:26:38;;;;;;;3.00;1.63;;;11.10;99.90;;;;;;2612225;39;20875;-73
2023/03/13 05:29:03;;;;;;;3.00;1.70;;;11.20;99.90;;;;;;2612684;54;20155;-73
2023/03/13 05:34:51;;;;;;;4.43;2.13;;;11.20;99.90;;;;;;2611344;54;20955;-73
2023/03/13 05:40:39;;;;;;;7.50;2.20;;;11.40;99.90;;;;;;2612165;39;20639;-72
2023/03/13 05:46:27;;;;;;;3.50;2.20;;;11.50;99.90;;;;;;2611839;54;20652;-73
2023/03/13 05:52:15;;;;;;;3.10;1.87;;;11.70;99.90;;;;;;2612822;54;20142;-73
2023/03/13 05:58:03;;;;;;;3.70;2.90;;;11.90;99.90;;;;;;2610369;39;20625;-73
2023/03/13 06:03:51;;;;;;;3.90;2.67;;;12.10;99.90;;;;;;2612766;54;20165;-74
2023/03/13 06:09:39;;;;;;;4.53;2.93;;;12.40;99.90;;;;;;2611158;54;20474;-74
2023/03/13 06:15:27;;;;;;;5.07;2.80;;;12.50;99.90;;;;;;2610441;54;20370;-72
2023/03/13 06:21:15;;;;;;;5.33;3.00;;;12.60;99.90;;;;;;2612192;39;20558;-71
2023/03/13 06:27:03;;;;;;;3.13;2.23;;;12.60;99.90;;;;;;2610838;54;20178;-71
2023/03/13 06:32:50;;;;;;;4.23;2.57;;;12.90;99.90;;;;;;2612710;54;20146;-72
2023/03/13 06:38:38;;;;;;;3.67;2.77;;;13.00;99.90;;;;;;2610101;54;20167;-74
2023/03/13 06:44:27;;;;;;;3.07;1.90;;;13.10;99.90;;;;;;2611207;54;20270;-74
2023/03/13 06:50:14;;;;;;;4.20;2.20;;;13.10;99.90;;;;;;2611742;39;20443;-74
2023/03/13 06:56:02;;;;;;;4.07;2.47;;;13.30;99.90;;;;;;2608803;54;20175;-73
2023/03/13 07:01:50;;;;;;;2.57;2.30;;;13.30;99.90;;;;;;2610033;54;20189;-77
2023/03/13 07:14:22;;;;;;;3.47;2.40;;;13.60;99.90;;;;;;2611562;54;20399;-74
2023/03/13 07:20:10;;;;;;;6.73;3.83;;;13.70;99.90;;;;;;2613348;54;20211;-74
2023/03/13 07:26:01;;;;;;;2.97;2.00;;;13.70;99.90;;;;;;2609506;54;20446;-75
2023/03/13 07:31:49;;;;;;;3.93;3.20;;;13.70;99.90;;;;;;2608559;54;20399;-74
2023/03/13 07:37:37;;;;;;;7.13;2.60;;;13.80;99.90;;;;;;2610148;54;20146;-75
2023/03/13 07:43:25;;;;;;;3.43;3.10;;;13.90;99.90;;;;;;2610120;54;20179;-75
2023/03/13 07:49:13;;;;;;;4.00;2.83;;;13.90;99.90;;;;;;2611529;54;20424;-75
2023/03/13 07:55:01;;;;;;;3.93;3.43;;;14.00;99.90;;;;;;2611426;54;20163;-74
2023/03/13 08:00:49;;;;;;;3.60;3.00;;;14.00;99.90;;;;;;2608496;54;20138;-74
2023/03/13 08:06:38;;;;;;;4.93;3.10;;;14.00;99.90;;;;;;2613161;54;20154;-73
2023/03/13 08:12:26;;;;;;;4.10;3.40;;;14.00;99.90;;;;;;2613710;54;20418;-70
2023/03/13 08:18:13;;;;;;;4.87;3.60;;;14.00;99.90;;;;;;2612006;39;20654;-69
2023/03/13 08:24:05;;;;;;;6.60;3.20;;;14.00;99.90;;;;;;2614004;54;20666;-71
2023/03/13 08:29:53;;;;;;;4.40;3.60;;;14.10;99.90;;;;;;2612727;54;20387;-70
2023/03/13 08:35:41;;;;;;;10.90;4.13;;;14.10;99.90;;;;;;2610730;54;20826;-70
2023/03/13 08:41:32;;;;;;;4.13;3.83;;;14.20;99.90;;;;;;2610750;54;20130;-69
2023/03/13 08:47:20;;;;;;;6.97;3.77;;;14.20;99.90;;;;;;2610751;54;20366;-69
2023/03/13 08:53:07;;;;;;;12.70;4.07;;;14.20;99.90;;;;;;2611956;54;20162;-70
2023/03/13 08:59:00;;;;;;;7.53;4.50;;;14.40;99.90;;;;;;2610898;54;20201;-70
2023/03/13 09:04:48;;;;;;;4.90;3.70;;;14.30;99.90;;;;;;2613768;39;20914;-69
2023/03/13 09:10:35;;;;;;;10.93;4.30;;;14.50;99.90;;;;;;2613713;54;20188;-70
2023/03/13 09:16:25;;;;;;;6.90;4.40;;;14.60;99.90;;;;;;2610679;39;20652;-70
2023/03/13 09:22:14;;;;;;;6.40;4.90;;;15.10;99.90;;;;;;2611192;54;20355;-70
2023/03/13 09:28:01;;;;;;;12.67;4.90;;;15.30;99.90;;;;;;2612640;39;20860;-69
2023/03/13 09:33:50;;;;;;;6.13;4.13;;;15.10;99.90;;;;;;2612928;54;20123;-70
2023/03/13 09:39:37;;;;;;;9.10;4.80;;;15.20;99.90;;;;;;2611012;54;20362;-69
2023/03/13 09:45:32;;;;;;;6.67;4.30;;;14.90;99.90;;;;;;2613114;54;20661;-70
2023/03/13 09:51:26;;;;;;;4.90;4.00;;;14.70;99.90;;;;;;2609325;54;20375;-71
2023/03/13 09:57:17;;;;;;;4.00;3.60;;;14.70;99.90;;;;;;2613057;54;20391;-70
2023/03/13 10:26:49;;;;;;;5.97;4.77;;;16.50;99.90;;;;;;2610046;54;20422;-70
2023/03/13 10:32:37;;;;;;;5.67;5.27;;;17.70;99.90;;;;;;2613154;54;20435;-70
2023/03/13 10:38:24;;;;;;;5.40;5.00;;;16.60;99.90;;;;;;2611873;54;20122;-70
2023/03/13 10:44:17;;;;;;;5.70;4.93;;;16.40;99.90;;;;;;2612118;54;20238;-72
2023/03/13 10:50:05;;;;;;;9.90;5.77;;;16.50;99.90;;;;;;2612396;54;21074;-69
2023/03/13 10:56:13;;;;;;;7.50;5.17;;;17.00;99.90;;;;;;2612167;54;20145;-70
2023/03/13 11:02:02;;;;;;;4.83;4.53;;;16.80;99.90;;;;;;2611230;54;21203;-69
2023/03/13 11:07:51;;;;;;;5.77;5.00;;;16.90;99.90;;;;;;2609342;54;20396;-70
2023/03/13 11:14:17;;;;;;;4.93;4.63;;;16.70;99.90;;;;;;2609844;54;20431;-70
2023/03/13 11:23:54;;;;;;;5.00;4.70;;;16.60;99.90;;;;;;2610105;54;20415;-69
2023/03/13 11:59:40;;;;;;;5.83;5.53;;;18.00;97.90;;;;;;2611987;54;20962;-70
2023/03/13 12:11:51;;;;;;;5.73;5.43;;;17.60;80.60;;;;;;2612207;46;20509;-69
2023/03/13 12:17:45;;;;;;;6.20;5.80;;;17.20;87.70;;;;;;2612040;39;20846;-70
2023/03/13 12:20:48;;;;;;;6.30;5.90;;;17.10;91.60;;;;;;2610877;54;20403;-69
2023/03/13 12:43:32;;;;;;;5.57;5.27;;;17.10;99.30;;;;;;2611803;54;20403;-70
2023/03/13 12:55:50;;;;;;;6.20;5.90;;;17.00;86.00;;;;;;2611398;54;20423;-71
2023/03/13 13:01:44;;;;;;;6.20;5.90;;;16.90;88.50;;;;;;2612294;31;20803;-70
2023/03/13 13:07:33;;;;;;;6.00;5.60;;;17.20;82.20;;;;;;2609247;54;20399;-69
2023/03/13 13:13:30;;;;;;;5.97;5.57;;;16.90;80.50;;;;;;2612049;54;20388;-71
2023/03/13 13:16:17;;;;;;;6.47;6.17;;;17.00;88.80;;;;;;2612596;39;20917;-70
2023/03/13 13:18:43;;;;;;;6.47;6.07;;;17.20;79.60;;;;;;2612877;54;20395;-70
2023/03/13 13:24:50;;;;;;;7.20;6.60;;;17.20;78.40;;;;;;2614281;54;20127;-70
2023/03/13 13:30:38;;;;;;;6.60;6.30;;;17.30;70.10;;;;;;2614437;54;20396;-69
2023/03/13 13:36:28;;;;;;;5.57;5.37;;;18.30;59.70;;;;;;2614139;54;20143;-69
2023/03/13 13:42:40;;;;;;;8.70;5.23;;;17.30;55.90;;;;;;2614356;54;20390;-71
2023/03/13 13:48:35;;;;;;;6.40;5.90;;;18.20;53.10;;;;;;2614005;54;20388;-70
2023/03/13 14:01:10;;;;;;;6.10;5.70;;;17.10;57.70;;;;;;2613315;54;20403;-71
2023/03/13 14:07:02;;;;;;;5.93;5.63;;;17.20;71.30;;;;;;2613759;54;20375;-70
2023/03/13 14:12:55;;;;;;;7.60;6.83;;;17.10;85.80;;;;;;2614650;54;20403;-71
2023/03/13 14:16:17;;;;;;;6.40;6.00;;;17.00;90.60;;;;;;2613913;54;20404;-71
2023/03/13 14:18:42;;;;;;;6.67;5.77;;;16.90;87.20;;;;;;2612718;54;20432;-70
2023/03/13 14:24:30;;;;;;;5.40;5.10;;;16.80;89.80;;;;;;2612246;54;20175;-70
2023/03/13 14:33:45;;;;;;;5.70;5.37;;;16.80;86.70;;;;;;2617649;54;20490;-72
2023/03/13 14:39:32;;;;;;;6.23;5.83;;;16.80;92.50;;;;;;2617447;54;20124;-71
2023/03/13 14:45:32;;;;;;;5.60;5.20;;;16.70;99.90;;;;;;2616332;54;20262;-71
2023/03/13 14:51:25;;;;;;;6.43;5.50;;;16.80;99.90;;;;;;2617541;54;20362;-72
2023/03/13 14:57:16;;;;;;;6.27;5.73;;;16.60;99.90;;;;;;2617245;54;20471;-71
2023/03/13 15:03:17;;;;;;;7.20;6.60;;;16.50;99.90;;;;;;2613985;54;20379;-71
2023/03/13 15:09:21;;;;;;;4.90;1.90;;;15.60;99.90;;;;;;2614357;54;20385;-72
2023/03/13 15:15:09;;;;;;;3.77;1.67;;;14.50;99.90;;;;;;2613204;54;20394;-70
2023/03/13 15:27:42;;;;;;;5.47;2.10;;;14.50;99.90;;;;;;2611462;54;20410;-71
2023/03/13 15:33:29;;;;;;;3.13;1.50;;;15.00;99.90;;;;;;2614711;38;20570;-72
2023/03/13 15:36:34;;;;;;;2.50;1.67;;;15.30;99.90;;;;;;2612841;54;20419;-71
2023/03/13 15:42:23;;;;;;;3.73;2.30;;;16.10;99.90;;;;;;2605792;39;20854;-71
2023/03/13 15:58:17;;;;;;;1.73;1.60;;;18.50;99.90;;;;;;2609658;39;20995;-72
2023/03/13 16:04:04;;;;;;;2.90;2.37;;;18.40;90.20;;;;;;2610464;54;20155;-72
2023/03/13 16:09:51;;;;;;;2.83;2.63;;;18.60;78.30;;;;;;2608050;54;20504;-71
2023/03/13 16:15:39;;;;;;;3.00;2.80;;;18.10;65.80;;;;;;2611202;54;20134;-71
2023/03/13 16:21:29;;;;;;;3.23;3.00;;;17.90;70.70;;;;;;2610887;39;20581;-72
2023/03/13 16:27:19;;;;;;;3.37;3.07;;;17.50;68.50;;;;;;2609487;54;20439;-72
2023/03/13 16:36:35;;;;;;;7.23;3.30;;;16.80;68.70;;;;;;2612892;54;20396;-71
2023/03/13 16:42:23;;;;;;;5.47;3.70;;;16.50;74.80;;;;;;2603767;54;20778;-71
2023/03/13 16:48:16;;;;;;;4.13;3.73;;;16.30;79.40;;;;;;2608452;54;20911;-71
2023/03/13 16:54:05;;;;;;;5.67;4.00;;;16.10;87.80;;;;;;2609653;54;20403;-73
2023/03/13 16:59:53;;;;;;;5.50;5.10;;;15.40;92.70;;;;;;2611256;39;20764;-71
2023/03/13 17:05:40;;;;;;;4.70;4.40;;;15.20;99.10;;;;;;2611718;54;20126;-71
2023/03/13 17:11:31;;;;;;;4.90;3.80;;;15.00;99.90;;;;;;2610744;54;20186;-71
2023/03/13 17:17:21;;;;;;;5.10;3.93;;;15.00;99.90;;;;;;2611892;54;20387;-71
2023/03/13 17:23:09;;;;;;;5.10;4.80;;;14.70;99.90;;;;;;2611634;54;20525;-71
2023/03/13 17:28:59;;;;;;;6.70;4.80;;;14.80;99.90;;;;;;2611941;54;20221;-72
2023/03/13 17:32:02;;;;;;;5.30;4.90;;;14.70;99.90;;;;;;2613117;39;20747;-72
2023/03/13 17:34:29;;;;;;;5.10;4.80;;;14.80;99.90;;;;;;2612883;54;20395;-72
2023/03/13 17:40:21;;;;;;;5.60;4.67;;;14.70;99.90;;;;;;2612560;54;20363;-72
2023/03/13 17:46:18;;;;;;;4.80;4.50;;;14.60;99.90;;;;;;2612823;54;20419;-71
2023/03/13 17:52:05;;;;;;;5.93;5.37;;;14.60;99.90;;;;;;2612758;54;20399;-72
2023/03/13 17:57:53;;;;;;;10.33;7.90;;;14.30;99.90;;;;;;2608842;54;20644;-71
2023/03/13 18:03:41;;;;;;;7.13;5.20;;;14.10;99.90;;;;;;2608330;31;20644;-71
2023/03/13 18:09:29;;;;;;;4.10;3.83;;;14.10;99.90;;;;;;2612411;54;20407;-71
2023/03/13 18:15:18;;;;;;;9.70;4.97;;;13.90;99.90;;;;;;2608575;54;20177;-71
2023/03/13 18:21:06;;;;;;;5.73;4.80;;;13.90;99.90;;;;;;2607708;46;20410;-72
2023/03/13 18:26:54;;;;;;;13.93;5.03;;;13.70;99.90;;;;;;2608545;54;20134;-71
2023/03/13 18:36:35;;;;;;;4.63;4.33;;;13.50;99.90;;;;;;2608998;54;20380;-71
2023/03/13 18:42:23;;;;;;;5.87;4.17;;;13.70;99.90;;;;;;2610058;54;20387;-72
2023/03/13 18:48:11;;;;;;;4.50;4.10;;;13.60;99.90;;;;;;2608525;54;20415;-71
2023/03/13 18:53:58;;;;;;;5.60;4.23;;;13.60;99.90;;;;;;2607279;54;20122;-72
2023/03/13 18:59:46;;;;;;;6.70;4.77;;;13.60;99.90;;;;;;2608817;54;20119;-71
2023/03/13 19:05:34;;;;;;;4.30;4.00;;;13.60;99.90;;;;;;2608096;54;20126;-71
2023/03/13 19:18:10;;;;;;;13.40;4.93;;;13.70;99.90;;;;;;2607036;54;20399;-72
2023/03/13 19:23:58;;;;;;;5.93;4.67;;;13.70;99.90;;;;;;2603788;54;20370;-71
2023/03/13 19:29:45;;;;;;;8.90;4.80;;;13.60;99.90;;;;;;2608053;54;20367;-71
2023/03/13 19:38:54;;;;;;;5.53;4.30;;;13.50;99.90;;;;;;2605959;54;20477;-71
2023/03/13 19:44:41;;;;;;;6.70;5.37;;;13.40;99.90;;;;;;2605970;54;20235;-71
2023/03/13 19:50:29;;;;;;;5.30;4.80;;;13.50;99.90;;;;;;2606356;54;20150;-70
2023/03/13 19:56:21;;;;;;;6.50;4.43;;;13.30;99.90;;;;;;2607285;54;20435;-71
2023/03/13 20:02:10;;;;;;;5.57;3.90;;;13.20;99.90;;;;;;2608209;39;20809;-71
2023/03/13 20:07:57;;;;;;;8.30;4.93;;;13.00;99.90;;;;;;2608262;54;20494;-70
2023/03/13 20:13:45;;;;;;;7.73;4.27;;;13.10;99.90;;;;;;2607866;54;20130;-71
2023/03/13 20:19:33;;;;;;;5.93;4.47;;;12.90;99.90;;;;;;2609515;54;20130;-71
2023/03/13 20:25:22;;;;;;;7.57;3.80;;;12.90;99.90;;;;;;2613470;54;20122;-71
2023/03/13 20:31:09;;;;;;;9.10;4.43;;;12.70;99.90;;;;;;2613763;54;20419;-71
2023/03/13 20:34:20;;;;;;;6.33;3.37;;;12.60;99.90;;;;;;2613930;54;20419;-71
2023/03/13 20:36:45;;;;;;;5.63;4.63;;;12.80;99.90;;;;;;2612702;54;20494;-70
2023/03/13 20:42:33;;;;;;;6.47;4.30;;;12.70;99.90;;;;;;2613032;31;20654;-71
2023/03/13 20:48:21;;;;;;;4.43;4.00;;;12.70;99.90;;;;;;2611603;54;20211;-71
2023/03/13 20:54:09;;;;;;;4.20;3.80;;;12.50;99.90;;;;;;2608902;54;20435;-71
2023/03/13 20:59:56;;;;;;;4.77;3.93;;;12.30;99.90;;;;;;2613357;54;20127;-72
2023/03/13 21:05:44;;;;;;;4.87;4.30;;;12.50;99.90;;;;;;2613771;54;20202;-69
2023/03/13 21:11:32;;;;;;;6.20;4.60;;;12.60;99.90;;;;;;2609765;54;20374;-71
2023/03/13 21:17:20;;;;;;;7.67;4.20;;;12.20;99.90;;;;;;2612549;54;20479;-72
2023/03/13 21:23:08;;;;;;;8.60;5.00;;;12.40;99.90;;;;;;2612690;54;20145;-70
2023/03/13 21:28:56;;;;;;;6.73;4.50;;;12.40;99.90;;;;;;2610907;39;20513;-71
2023/03/13 21:38:50;;;;;;;6.60;4.40;;;12.40;99.90;;;;;;2610390;54;20519;-70
2023/03/13 21:44:38;;;;;;;6.47;4.83;;;12.50;99.90;;;;;;2612476;54;20411;-71
2023/03/13 21:50:26;;;;;;;7.80;4.40;;;12.20;99.90;;;;;;2612752;54;20913;-71
2023/03/13 21:56:15;;;;;;;7.17;4.10;;;12.20;99.90;;;;;;2611055;54;20243;-71
2023/03/13 22:02:03;;;;;;;4.30;3.93;;;12.10;99.90;;;;;;2612135;54;20432;-70
2023/03/13 22:07:51;;;;;;;6.90;3.93;;;12.20;99.90;;;;;;2612666;39;20859;-70
2023/03/13 22:13:39;;;;;;;6.60;3.77;;;12.10;99.90;;;;;;2613012;54;20141;-69
2023/03/13 22:19:27;;;;;;;4.77;4.27;;;12.00;99.90;;;;;;2612440;54;20230;-70
2023/03/13 22:25:14;;;;;;;4.90;4.23;;;12.00;99.90;;;;;;2612539;54;20129;-71
2023/03/13 22:31:03;;;;;;;5.57;3.97;;;12.00;99.90;;;;;;2612367;54;20139;-71
2023/03/13 22:34:19;;;;;;;7.80;4.37;;;11.80;99.90;;;;;;2610574;54;20388;-70
2023/03/13 22:36:45;;;;;;;8.60;4.20;;;12.00;99.90;;;;;;2612758;54;20399;-70
2023/03/13 22:42:32;;;;;;;5.17;3.90;;;12.20;99.90;;;;;;2612667;54;20150;-70
2023/03/13 22:48:20;;;;;;;5.77;4.27;;;12.20;99.90;;;;;;2611963;54;20138;-70
2023/03/13 22:54:08;;;;;;;5.70;3.13;;;12.20;99.90;;;;;;2612182;54;20170;-69
2023/03/13 22:59:58;;;;;;;5.33;4.07;;;11.90;99.90;;;;;;2611268;54;20123;-71
2023/03/13 23:05:46;;;;;;;4.70;3.40;;;11.80;99.90;;;;;;2612767;54;20395;-70
2023/03/13 23:11:34;;;;;;;5.40;4.43;;;11.80;99.90;;;;;;2612903;54;20434;-70
2023/03/13 23:17:22;;;;;;;8.53;3.80;;;11.60;99.90;;;;;;2613247;39;20425;-71
2023/03/13 23:23:10;;;;;;;6.50;3.70;;;11.50;99.90;;;;;;2613422;54;20150;-69
2023/03/13 23:28:57;;;;;;;6.53;3.87;;;11.50;99.90;;;;;;2610206;54;20284;-70
2023/03/13 23:38:51;;;;;;;6.13;4.30;;;11.70;99.90;;;;;;2610997;54;20383;-69
2023/03/13 23:44:38;;;;;;;4.97;3.43;;;11.60;99.90;;;;;;2613461;54;20410;-70
2023/03/13 23:50:26;;;;;;;5.73;4.60;;;11.60;99.90;;;;;;2613336;54;20150;-70
2023/03/13 23:56:14;;;;;;;6.60;4.50;;;11.70;99.90;;;;;;2613161;54;20119;-70
